.
WxDataArchive / Data Records for 2007-01-29
2007-01-28 January 2007 2007-01-30

Data Records for Monday, 29 January 2007

Time	Temp	Chill	HIndex	Humid	Dewpt	 Wind 	HiWind	WindDir	Rain 	Barom 
-----	----	-----	------	-----	-----	------	------	-------	-----	----- 
00:00	9.9	9.9	9.9	84	6.1	0	0	---	0.00	30.075 
00:05	9.9	9.9	9.9	84	6.1	0	0	---	0.00	30.075 
00:10	9.7	9.7	9.7	84	5.9	0	0	---	0.00	30.075 
00:15	9.7	9.7	9.7	84	5.9	0	1	248	0.00	30.083 
00:20	9.9	9.9	9.9	85	6.3	0	1	248	0.00	30.083 
00:25	10.0	10.0	10.0	85	6.4	0	1	248	0.00	30.083 
00:30	10.4	10.4	10.4	85	6.8	0	1	248	0.00	30.084 
00:35	10.7	10.7	10.7	86	7.4	0	1	248	0.00	30.084 
00:40	11.1	11.1	11.1	86	7.7	0	2	248	0.00	30.084 
00:45	11.6	11.6	11.6	86	8.2	0	2	248	0.00	30.085 
00:50	11.9	11.9	11.9	86	8.5	0	3	248	0.00	30.085 
00:55	12.3	12.3	12.3	86	8.9	0	3	225	0.00	30.085 
01:00	12.4	12.4	12.4	86	9.0	1	2	248	0.00	30.083 
01:05	12.6	12.6	12.6	86	9.2	1	3	248	0.00	30.083 
01:10	12.6	12.6	12.6	86	9.2	0	3	248	0.00	30.083 
01:15	12.8	12.8	12.8	86	9.4	1	3	248	0.00	30.091 
01:20	12.9	12.9	12.9	86	9.5	1	3	248	0.00	30.091 
01:25	13.1	13.1	13.1	86	9.7	1	4	248	0.00	30.091 
01:30	13.3	13.3	13.3	86	9.9	0	2	248	0.00	30.087 
01:35	13.3	13.3	13.3	86	9.9	0	2	248	0.00	30.087 
01:40	13.3	13.3	13.3	86	9.9	0	2	248	0.00	30.087 
01:45	13.3	13.3	13.3	86	9.9	0	2	248	0.00	30.085 
01:50	13.3	13.3	13.3	85	9.7	0	1	248	0.00	30.085 
01:55	13.3	13.3	13.3	86	9.9	0	1	248	0.00	30.085 
02:00	13.1	13.1	13.1	86	9.7	0	1	248	0.00	30.084 
02:05	13.1	13.1	13.1	86	9.7	0	2	248	0.00	30.084 
02:10	13.1	13.1	13.1	85	9.5	0	1	248	0.00	30.084 
02:15	12.9	12.9	12.9	85	9.3	0	0	---	0.00	30.080 
02:20	12.8	12.8	12.8	85	9.2	0	2	248	0.00	30.080 
02:25	12.8	12.8	12.8	85	9.2	0	1	248	0.00	30.080 
02:30	12.8	12.8	12.8	85	9.2	0	1	248	0.00	30.086 
02:35	12.8	12.8	12.8	85	9.2	0	1	248	0.00	30.086 
02:40	12.9	12.9	12.9	85	9.3	0	2	248	0.00	30.086 
02:45	12.9	12.9	12.9	85	9.3	1	4	248	0.00	30.092 
02:50	13.3	13.3	13.3	85	9.7	1	5	248	0.00	30.092 
02:55	13.5	13.5	13.5	85	9.8	1	4	248	0.00	30.092 
03:00	13.6	13.6	13.6	85	9.9	1	4	248	0.00	30.095 
03:05	13.6	13.6	13.6	84	9.7	1	4	270	0.00	30.095 
03:10	13.8	13.8	13.8	83	9.6	1	6	248	0.00	30.095 
03:15	13.6	13.6	13.6	82	9.1	1	3	248	0.00	30.088 
03:20	13.6	13.6	13.6	82	9.1	1	4	248	0.00	30.088 
03:25	13.5	13.5	13.5	81	8.8	1	4	248	0.00	30.088 
03:30	13.5	13.5	13.5	81	8.8	1	4	248	0.00	30.085 
03:35	13.5	13.5	13.5	81	8.8	1	5	248	0.00	30.085 
03:40	13.5	13.5	13.5	80	8.5	1	3	248	0.00	30.085 
03:45	13.5	13.5	13.5	80	8.5	1	4	248	0.00	30.085 
03:50	13.3	13.3	13.3	79	8.0	1	4	270	0.00	30.085 
03:55	13.1	13.1	13.1	79	7.8	1	6	248	0.00	30.085 
04:00	12.9	12.9	12.9	79	7.6	1	4	248	0.00	30.079 
04:05	12.8	12.8	12.8	79	7.5	1	3	248	0.00	30.079 
04:10	12.4	12.4	12.4	79	7.2	1	3	248	0.00	30.079 
04:15	12.3	12.3	12.3	79	7.1	1	3	225	0.00	30.077 
04:20	12.1	12.1	12.1	79	6.9	0	3	248	0.00	30.077 
04:25	11.9	11.9	11.9	78	6.4	0	3	248	0.00	30.077 
04:30	11.6	11.6	11.6	78	6.1	0	2	248	0.00	30.080 
04:35	11.4	11.4	11.4	78	5.9	0	2	248	0.00	30.080 
04:40	11.1	11.1	11.1	78	5.6	0	2	248	0.00	30.080 
04:45	10.9	10.9	10.9	78	5.4	1	3	248	0.00	30.085 
04:50	10.7	10.7	10.7	78	5.2	1	2	248	0.00	30.085 
04:55	10.7	10.7	10.7	78	5.2	1	5	248	0.00	30.085 
05:00	10.5	10.5	10.5	78	5.0	0	2	248	0.00	30.097 
05:05	10.5	10.5	10.5	78	5.0	1	4	248	0.00	30.097 
05:10	10.5	10.5	10.5	78	5.0	1	2	248	0.00	30.097 
05:15	10.5	10.5	10.5	78	5.0	1	4	270	0.00	30.096 
05:20	10.4	10.4	10.4	78	4.9	0	3	248	0.00	30.096 
05:25	10.4	10.4	10.4	78	4.9	1	4	248	0.00	30.096 
05:30	10.2	10.2	10.2	78	4.7	1	4	248	0.00	30.099 
05:35	10.2	10.2	10.2	78	4.7	1	5	248	0.00	30.099 
05:40	10.0	10.0	10.0	79	4.8	1	3	248	0.00	30.099 
05:45	10.0	10.0	10.0	79	4.8	1	4	248	0.00	30.100 
05:50	9.9	9.9	9.9	79	4.7	1	3	248	0.00	30.100 
05:55	9.9	9.9	9.9	79	4.7	1	3	248	0.00	30.100 
06:00	9.7	9.7	9.7	80	4.8	1	7	248	0.00	30.102 
06:05	9.9	9.9	9.9	80	5.0	1	5	248	0.00	30.102 
06:10	9.9	9.9	9.9	80	5.0	1	4	248	0.00	30.102 
06:15	9.9	9.9	9.9	80	5.0	1	5	248	0.00	30.103 
06:20	9.9	9.9	9.9	80	5.0	2	6	248	0.00	30.103 
06:25	9.9	9.9	9.9	80	5.0	1	5	248	0.00	30.103 
06:30	9.9	9.9	9.9	80	5.0	1	5	248	0.00	30.103 
06:35	9.9	9.9	9.9	80	5.0	2	6	248	0.00	30.103 
06:40	9.9	9.9	9.9	80	5.0	1	5	248	0.00	30.103 
06:45	9.9	9.9	9.9	80	5.0	0	3	248	0.00	30.102 
06:50	9.9	9.9	9.9	80	5.0	1	4	248	0.00	30.102 
06:55	9.9	9.9	9.9	81	5.3	1	3	248	0.00	30.102 
07:00	9.9	9.9	9.9	81	5.3	0	2	248	0.00	30.099 
07:05	9.9	9.9	9.9	81	5.3	1	4	248	0.00	30.099 
07:10	9.9	9.9	9.9	81	5.3	1	4	248	0.00	30.099 
07:15	9.9	9.9	9.9	81	5.3	0	3	225	0.00	30.098 
07:20	9.9	9.9	9.9	81	5.3	0	2	248	0.00	30.098 
07:25	9.9	9.9	9.9	81	5.3	0	1	248	0.00	30.098 
07:30	9.9	9.9	9.9	81	5.3	0	2	248	0.00	30.094 
07:35	9.9	9.9	9.9	81	5.3	1	2	248	0.00	30.094 
07:40	9.7	9.7	9.7	81	5.1	0	2	248	0.00	30.094 
07:45	9.7	9.7	9.7	81	5.1	0	2	248	0.00	30.100 
07:50	9.7	9.7	9.7	81	5.1	1	4	248	0.00	30.100 
07:55	9.7	9.7	9.7	81	5.1	1	4	248	0.00	30.100 
08:00	9.9	9.9	9.9	81	5.3	2	7	248	0.00	30.102 
08:05	10.0	10.0	10.0	81	5.4	2	5	248	0.00	30.102 
08:15	10.2	10.2	10.2	81	5.6	1	2	248	0.00	30.099 
08:20	10.2	10.2	10.2	81	5.6	1	3	248	0.00	30.099 
08:25	10.4	10.4	10.4	81	5.7	1	5	248	0.00	30.099 
08:30	10.4	10.4	10.4	81	5.7	1	3	248	0.00	30.101 
08:35	10.4	10.4	10.4	80	5.5	1	7	270	0.00	30.101 
08:40	10.4	10.4	10.4	80	5.5	2	4	248	0.00	30.101 
08:45	10.5	10.5	10.5	80	5.6	1	5	248	0.00	30.101 
08:50	10.9	10.9	10.9	80	6.0	1	5	248	0.00	30.101 
08:55	11.2	11.2	11.2	79	6.0	2	5	248	0.00	30.101 
09:00	11.4	11.4	11.4	78	5.9	2	7	248	0.00	30.097 
09:05	11.4	11.4	11.4	78	5.9	1	4	248	0.00	30.097 
09:10	11.4	11.4	11.4	78	5.9	2	7	248	0.00	30.097 
09:15	11.4	11.4	11.4	78	5.9	1	3	248	0.00	30.093 
09:20	11.6	11.6	11.6	78	6.1	1	4	248	0.00	30.093 
09:25	11.7	11.7	11.7	77	5.9	1	6	248	0.00	30.093 
09:30	11.9	11.9	11.9	77	6.1	2	6	248	0.00	30.087 
09:35	12.3	12.3	12.3	77	6.5	1	4	248	0.00	30.087 
09:40	12.6	12.6	12.6	76	6.5	2	7	248	0.00	30.087 
09:45	12.8	12.8	12.8	75	6.4	1	4	248	0.00	30.082 
09:50	12.9	12.9	12.9	75	6.5	1	5	248	0.00	30.082 
09:55	13.1	13.1	13.1	75	6.7	2	4	248	0.00	30.082 
10:00	13.5	13.5	13.5	75	7.1	1	4	248	0.00	30.069 
10:05	13.5	13.5	13.5	74	6.8	1	6	270	0.00	30.069 
10:10	13.5	13.5	13.5	74	6.8	1	4	248	0.00	30.069 
10:15	13.6	13.6	13.6	75	7.2	1	3	90	0.00	30.069 
10:20	14.0	14.0	14.0	75	7.6	1	4	248	0.00	30.069 
10:25	14.0	14.0	14.0	73	7.0	2	6	248	0.00	30.069 
10:30	14.1	14.1	14.1	74	7.4	1	5	248	0.00	30.071 
10:35	14.4	14.4	14.4	73	7.4	1	4	135	0.00	30.071 
10:40	14.6	14.6	14.6	73	7.5	1	4	0	0.00	30.071 
10:45	14.8	14.8	14.8	72	7.4	2	5	248	0.00	30.068 
10:50	15.1	15.1	15.1	73	8.0	1	7	270	0.00	30.068 
10:55	15.2	15.2	15.2	70	7.2	2	5	270	0.00	30.068 
11:00	15.4	15.4	15.4	69	7.1	2	6	248	0.00	30.068 
11:05	15.9	15.9	15.9	70	7.9	1	4	248	0.00	30.068 
11:10	16.1	16.1	16.1	68	7.4	2	7	248	0.00	30.068 
11:15	16.2	16.2	16.2	67	7.2	3	7	248	0.00	30.064 
11:20	16.7	16.7	16.7	68	8.0	2	5	248	0.00	30.064 
11:25	17.0	17.0	17.0	67	8.0	2	5	248	0.00	30.064 
11:30	17.2	17.2	17.2	65	7.5	2	5	90	0.00	30.052 
11:35	17.5	17.5	17.5	66	8.1	1	3	248	0.00	30.052 
11:40	17.8	17.8	17.8	65	8.1	1	4	90	0.00	30.052 
11:45	17.7	17.7	17.7	63	7.3	2	6	90	0.00	30.037 
11:50	18.0	18.0	18.0	64	7.9	1	4	90	0.00	30.037 
11:55	18.0	18.0	18.0	64	7.9	2	6	90	0.00	30.037 
12:00	18.0	18.0	18.0	63	7.6	2	9	90	0.00	30.026 
12:05	18.0	18.0	18.0	64	7.9	2	7	112	0.00	30.026 
12:10	18.1	18.1	18.1	62	7.3	3	7	248	0.00	30.026 
12:15	18.1	18.1	18.1	62	7.3	2	7	248	0.00	30.022 
12:20	18.3	18.3	18.3	63	7.8	2	7	68	0.00	30.022 
12:25	18.3	18.3	18.3	63	7.8	2	5	248	0.00	30.022 
12:30	18.1	18.1	18.1	64	8.0	2	6	270	0.00	30.019 
12:35	18.3	18.3	18.3	63	7.8	2	6	248	0.00	30.019 
12:40	18.3	18.3	18.3	63	7.8	2	7	248	0.00	30.019 
12:45	18.3	18.3	18.3	63	7.8	3	7	270	0.00	30.010 
12:50	18.1	12.0	18.1	63	7.7	4	10	248	0.00	30.010 
12:55	18.4	18.4	18.4	65	8.6	2	5	270	0.00	30.010 
13:00	18.6	18.6	18.6	65	8.8	2	7	248	0.00	29.997 
13:05	18.9	18.9	18.9	63	8.4	3	7	248	0.00	29.997 
13:10	18.9	18.9	18.9	63	8.4	2	5	248	0.00	29.997 
13:15	19.2	19.2	19.2	64	9.0	3	9	248	0.00	29.988 
13:20	19.2	19.2	19.2	64	9.0	2	6	248	0.00	29.988 
13:25	19.2	19.2	19.2	64	9.0	2	9	270	0.00	29.988 
13:30	19.2	19.2	19.2	65	9.4	2	6	248	0.00	29.980 
13:35	19.1	19.1	19.1	65	9.3	2	11	270	0.00	29.980 
13:40	19.1	19.1	19.1	66	9.6	2	9	248	0.00	29.980 
13:45	18.9	18.9	18.9	67	9.8	2	9	270	0.00	29.966 
13:50	18.9	18.9	18.9	69	10.4	3	10	270	0.00	29.966 
13:55	18.9	18.9	18.9	70	10.8	3	6	248	0.00	29.966 
14:00	19.1	19.1	19.1	71	11.3	2	11	248	0.00	29.967 
14:05	19.2	19.2	19.2	73	12.0	1	4	248	0.00	29.967 
14:10	19.2	19.2	19.2	73	12.0	2	5	248	0.00	29.967 
14:15	19.1	19.1	19.1	73	11.9	2	6	248	0.00	29.966 
14:20	19.2	19.2	19.2	74	12.3	2	7	248	0.00	29.966 
14:25	19.1	19.1	19.1	76	12.8	2	7	248	0.00	29.966 
14:30	19.1	19.1	19.1	78	13.4	1	3	270	0.00	29.965 
14:35	19.1	19.1	19.1	78	13.4	2	4	248	0.00	29.965 
14:40	19.2	19.2	19.2	80	14.1	0	3	248	0.00	29.965 
14:45	19.4	19.4	19.4	80	14.3	1	6	248	0.00	29.960 
14:50	19.4	19.4	19.4	80	14.3	1	6	292	0.00	29.960 
14:55	19.4	19.4	19.4	79	14.0	3	9	248	0.00	29.960 
15:00	19.4	19.4	19.4	79	14.0	2	7	248	0.00	29.952 
15:05	19.5	19.5	19.5	79	14.1	1	6	270	0.00	29.952 
15:10	19.5	19.5	19.5	79	14.1	2	7	248	0.00	29.952 
15:15	19.4	19.4	19.4	78	13.7	3	7	248	0.00	29.950 
15:20	19.5	19.5	19.5	78	13.8	2	4	248	0.00	29.950 
15:25	19.9	19.9	19.9	79	14.5	1	3	248	0.00	29.950 
15:30	19.9	19.9	19.9	78	14.2	2	7	270	0.00	29.949 
15:35	19.9	19.9	19.9	78	14.2	1	5	270	0.00	29.949 
15:40	19.9	19.9	19.9	78	14.2	1	6	248	0.00	29.949 
15:45	19.9	19.9	19.9	77	13.9	1	6	248	0.00	29.946 
15:50	19.9	19.9	19.9	77	13.9	2	7	248	0.00	29.946 
15:55	19.9	19.9	19.9	77	13.9	2	5	248	0.00	29.946 
16:00	19.9	19.9	19.9	77	13.9	1	5	248	0.00	29.940 
16:05	20.0	20.0	20.0	77	14.0	1	4	248	0.00	29.940 
16:10	20.0	20.0	20.0	77	14.0	2	5	270	0.00	29.940 
16:15	20.0	20.0	20.0	77	14.0	1	5	248	0.00	29.936 
16:20	20.0	20.0	20.0	77	14.0	1	5	270	0.00	29.936 
16:25	20.2	20.2	20.2	77	14.2	1	3	90	0.00	29.936 
16:30	20.3	20.3	20.3	77	14.3	2	6	248	0.00	29.935 
16:35	20.3	20.3	20.3	77	14.3	2	5	270	0.00	29.935 
16:40	20.3	20.3	20.3	78	14.6	1	5	248	0.00	29.935 
16:45	20.3	20.3	20.3	79	14.8	1	6	270	0.00	29.930 
16:50	20.3	20.3	20.3	80	15.1	1	4	248	0.00	29.930 
16:55	20.3	20.3	20.3	81	15.4	1	4	270	0.00	29.930 
17:00	20.3	20.3	20.3	81	15.4	1	3	248	0.00	29.926 
17:05	20.3	20.3	20.3	82	15.7	1	3	225	0.00	29.926 
17:10	20.3	20.3	20.3	82	15.7	0	2	248	0.00	29.926 
17:15	20.3	20.3	20.3	83	16.0	1	3	248	0.00	29.923 
17:20	20.3	20.3	20.3	83	16.0	1	3	248	0.00	29.923 
17:25	20.3	20.3	20.3	84	16.3	1	4	270	0.00	29.923 
17:30	20.3	20.3	20.3	84	16.3	1	2	270	0.00	29.921 
17:35	20.3	20.3	20.3	84	16.3	0	2	270	0.00	29.921 
17:40	20.3	20.3	20.3	84	16.3	0	2	248	0.00	29.921 
17:45	20.3	20.3	20.3	84	16.3	0	2	248	0.00	29.922 
17:50	20.5	20.5	20.5	84	16.4	1	3	248	0.00	29.922 
17:55	20.5	20.5	20.5	85	16.7	0	2	248	0.00	29.922 
18:00	20.5	20.5	20.5	85	16.7	0	3	248	0.00	29.926 
18:05	20.5	20.5	20.5	85	16.7	0	3	135	0.00	29.926 
18:10	20.6	20.6	20.6	85	16.8	0	2	292	0.00	29.926 
18:15	20.6	20.6	20.6	86	17.1	0	1	248	0.00	29.929 
18:20	20.8	20.8	20.8	86	17.3	0	2	248	0.00	29.929 
18:25	20.8	20.8	20.8	86	17.3	0	2	248	0.00	29.929 
18:30	20.8	20.8	20.8	87	17.6	0	1	248	0.00	29.934 
18:35	21.0	21.0	21.0	87	17.8	0	1	248	0.00	29.934 
18:40	21.0	21.0	21.0	87	17.8	0	1	248	0.00	29.934 
18:45	21.1	21.1	21.1	87	17.8	0	1	248	0.00	29.935 
18:50	21.1	21.1	21.1	87	17.8	0	1	248	0.00	29.935 
18:55	21.1	21.1	21.1	87	17.8	0	2	248	0.00	29.935 
19:00	21.1	21.1	21.1	87	17.8	0	2	248	0.00	29.939 
19:05	21.0	21.0	21.0	87	17.8	0	1	248	0.00	29.939 
19:10	20.6	20.6	20.6	86	17.1	0	0	---	0.00	29.939 
19:15	20.2	20.2	20.2	86	16.7	0	0	---	0.00	29.940 
19:20	19.5	19.5	19.5	85	15.7	0	0	---	0.00	29.940 
19:25	19.1	19.1	19.1	85	15.3	0	0	---	0.00	29.940 
19:30	18.6	18.6	18.6	85	14.9	0	0	---	0.00	29.946 
19:35	18.3	18.3	18.3	86	14.8	0	0	---	0.00	29.946 
19:40	18.0	18.0	18.0	86	14.5	0	0	---	0.00	29.946 
19:45	17.5	17.5	17.5	86	14.0	0	0	---	0.00	29.944 
19:50	17.3	17.3	17.3	87	14.1	0	0	---	0.00	29.944 
19:55	17.2	17.2	17.2	87	14.0	0	0	---	0.00	29.944 
20:00	17.2	17.2	17.2	88	14.3	0	0	---	0.00	29.949 
20:05	17.5	17.5	17.5	89	14.8	0	0	---	0.00	29.949 
20:10	17.8	17.8	17.8	89	15.1	0	2	248	0.00	29.949 
20:15	18.3	18.3	18.3	90	15.9	0	2	248	0.00	29.946 
20:20	18.8	18.8	18.8	90	16.4	0	1	248	0.00	29.946 
20:25	19.2	19.2	19.2	91	17.0	0	1	248	0.00	29.946 
20:30	19.5	19.5	19.5	91	17.3	1	3	248	0.00	29.940 
20:35	20.0	20.0	20.0	91	17.8	1	2	248	0.00	29.940 
20:40	20.2	20.2	20.2	91	18.0	0	1	248	0.00	29.940 
20:45	20.2	20.2	20.2	90	17.7	0	1	248	0.00	29.937 
20:50	20.2	20.2	20.2	90	17.7	0	2	248	0.00	29.937 
20:55	20.2	20.2	20.2	90	17.7	0	2	248	0.00	29.937 
21:00	20.3	20.3	20.3	90	17.8	0	2	248	0.00	29.937 
21:05	20.5	20.5	20.5	90	18.0	1	2	248	0.00	29.937 
21:10	20.8	20.8	20.8	90	18.3	1	3	248	0.00	29.937 
21:15	21.0	21.0	21.0	89	18.3	1	3	248	0.00	29.933 
21:20	21.1	21.1	21.1	88	18.1	1	4	248	0.00	29.933 
21:25	21.4	21.4	21.4	88	18.4	1	2	248	0.00	29.933 
21:30	21.6	21.6	21.6	87	18.3	1	3	248	0.00	29.932 
21:35	21.8	21.8	21.8	86	18.3	1	4	248	0.00	29.932 
21:40	21.8	21.8	21.8	85	18.0	1	4	248	0.00	29.932 
21:45	21.8	21.8	21.8	84	17.7	1	3	248	0.00	29.933 
21:50	21.6	21.6	21.6	83	17.3	1	4	248	0.00	29.933 
21:55	21.8	21.8	21.8	81	16.9	1	4	270	0.00	29.933 
22:00	21.8	21.8	21.8	81	16.9	0	2	270	0.00	29.932 
22:05	22.1	22.1	22.1	79	16.6	1	3	248	0.00	29.932 
22:10	22.1	22.1	22.1	78	16.3	1	4	248	0.00	29.932 
22:15	21.9	21.9	21.9	78	16.1	0	2	248	0.00	29.934 
22:20	21.8	21.8	21.8	77	15.7	0	1	248	0.00	29.934 
22:25	21.4	21.4	21.4	77	15.3	1	3	248	0.00	29.934 
22:30	21.4	21.4	21.4	77	15.3	1	3	248	0.00	29.938 
22:35	21.4	21.4	21.4	77	15.3	1	3	248	0.00	29.938 
22:40	21.4	21.4	21.4	77	15.3	1	3	248	0.00	29.938 
22:45	21.3	21.3	21.3	77	15.2	0	4	248	0.00	29.934 
22:50	21.1	21.1	21.1	77	15.0	0	2	248	0.00	29.934 
22:55	21.1	21.1	21.1	77	15.0	0	1	248	0.00	29.934 
23:00	21.0	21.0	21.0	77	14.9	0	2	248	0.00	29.931 
23:05	20.8	20.8	20.8	78	15.0	0	1	248	0.00	29.931 
23:10	20.8	20.8	20.8	78	15.0	0	1	248	0.00	29.931 
23:15	20.8	20.8	20.8	79	15.3	0	0	---	0.00	29.925 
23:20	20.8	20.8	20.8	79	15.3	0	1	248	0.00	29.925 
23:25	21.0	21.0	21.0	79	15.5	0	1	248	0.00	29.925 
23:30	21.0	21.0	21.0	79	15.5	0	1	248	0.00	29.926 
23:35	21.0	21.0	21.0	79	15.5	0	1	248	0.00	29.926 
23:40	21.1	21.1	21.1	79	15.6	0	1	248	0.00	29.926 
23:45	21.1	21.1	21.1	80	15.9	0	1	248	0.00	29.918 
23:50	21.0	21.0	21.0	80	15.8	0	1	248	0.00	29.918 
23:55	21.0	21.0	21.0	80	15.8	0	0	---	0.00	29.918 

CoCoRaHS
IN-AL-39
A2 Web Hosting
Creative Commons License
GoDaddy
Look for:

loaded 2017-12-12 07:29:13 • last modified 2010-11-18 10:43:29
Privacy PolicyDisclaimer
• wx.awcolley.com is powered by PmWiki v.2002016 •
• all content (unless otherwise noted) © 2017 A W Colley